Weather History for KSRR - January, 2013

Change the Weather History Date:

Wednesday, January 16, 2013

  Actual Average Record
Temperature  
Mean Temperature 30 °F -  
Max Temperature 46 °F 48 °F 71 °F (2000)
Min Temperature 15 °F 29 °F 14 °F (2007)
Degree Days  
Heating Degree Days 34    
Moisture  
Dew Point 7 °F    
Average Humidity 35    
Maximum Humidity 55    
Minimum Humidity 25    
Precipitation  
Precipitation 0.00 in - - ()
Sea Level Pressure  
Sea Level Pressure 30.28 in    
Wind  
Wind Speed 12 mph (WNW)    
Max Wind Speed 22 mph    
Max Gust Speed 30 mph    
Visibility 10 miles    
Events      
Averages and records for this station are not official NWS values.
T = Trace of Precipitation, MM = Missing Value Source: NWS Daily Summary

Daily Weather History Graph

Daily Weather History Graph

Search for Another Location

Airport or City:

Trip Planner

Search our weather history database for the weather conditions in past years. The results will help you decide how hot, cold, wet, or windy it might be!

Date:

Astronomy

Jan. 16, 2013 Rise Set
Actual Time 7:05 AM MST 5:18 PM MST
Civil Twilight 6:38 AM MST 5:45 PM MST
Nautical Twilight 6:08 AM MST 6:15 PM MST
Astronomical Twilight 5:38 AM MST 6:45 PM MST
Moon 10:02 AM MST (1/16) 10:52 PM MST (1/16)
Length of Visible Light 11h 06m
Length of Day
10h 12m
Waxing Crescent, 29% of the Moon is Illuminated
Jan 16
Waxing Crescent
Jan 18
First Quarter
Jan 26
Full
Feb 3
Last Quarter
Feb 10
New

Hourly Weather History & Observations

Time (MST) Temp. Windchill Dew Point Humidity Pressure Visibility Wind Dir Wind Speed Gust Speed Precip Events Conditions
12:35 AM 15.8 °F -1.1 °F -4.0 °F 41% 30.19 in 10.0 mi WNW 19.6 mph 28.8 mph N/A   Clear
12:55 AM 17.6 °F 2.7 °F -4.0 °F 38% 30.19 in 10.0 mi WNW 16.1 mph 23.0 mph N/A   Clear
1:15 AM 17.6 °F 0.5 °F -4.0 °F 38% 30.19 in 10.0 mi WNW 21.9 mph 29.9 mph N/A   Clear
1:35 AM 17.6 °F 0.9 °F -4.0 °F 38% 30.19 in 10.0 mi WNW 20.7 mph 27.6 mph N/A   Clear
1:55 AM 19.4 °F 4.1 °F -4.0 °F 36% 30.19 in 10.0 mi WNW 18.4 mph 25.3 mph N/A   Clear
2:15 AM 19.4 °F 3.2 °F -2.2 °F 39% 30.19 in 10.0 mi West 20.7 mph 25.3 mph N/A   Clear
2:35 AM 19.4 °F 4.1 °F -0.4 °F 42% 30.18 in 10.0 mi WNW 18.4 mph 25.3 mph N/A   Clear
2:55 AM 21.2 °F 6.0 °F -0.4 °F 39% 30.19 in 10.0 mi WNW 19.6 mph 24.2 mph N/A   Clear
3:15 AM 21.2 °F 6.4 °F -0.4 °F 39% 30.19 in 10.0 mi WNW 18.4 mph 24.2 mph N/A   Clear
3:35 AM 21.2 °F 6.8 °F -0.4 °F 39% 30.19 in 10.0 mi WNW 17.3 mph 24.2 mph N/A   Clear
3:55 AM 21.2 °F 7.8 °F -0.4 °F 39% 30.19 in 10.0 mi WNW 15.0 mph 24.2 mph N/A   Clear
4:15 AM 23.0 °F 10.1 °F -0.4 °F 36% 30.20 in 10.0 mi WNW 15.0 mph 21.9 mph N/A   Clear
4:35 AM 24.8 °F 12.4 °F -0.4 °F 34% 30.20 in 10.0 mi WNW 15.0 mph 26.5 mph N/A   Clear
5:35 AM 23.0 °F 8.3 °F 1.4 °F 39% 30.20 in 10.0 mi WNW 19.6 mph 26.5 mph N/A   Clear
5:55 AM 24.8 °F 11.5 °F 1.4 °F 36% 30.21 in 10.0 mi WNW 17.3 mph 23.0 mph N/A   Clear
6:15 AM 24.8 °F 13.4 °F 1.4 °F 36% 30.22 in 10.0 mi WNW 12.7 mph 19.6 mph N/A   Clear
6:35 AM 24.8 °F 12.9 °F 3.2 °F 40% 30.22 in 10.0 mi WNW 13.8 mph - N/A   Clear
6:55 AM 24.8 °F 14.0 °F 3.2 °F 40% 30.23 in 10.0 mi West 11.5 mph 18.4 mph N/A   Clear
7:15 AM 24.8 °F 15.3 °F 5.0 °F 43% 30.24 in 10.0 mi WNW 9.2 mph - N/A   Clear
7:35 AM 26.6 °F 16.8 °F 5.0 °F 40% 30.25 in 10.0 mi West 10.4 mph - N/A   Clear
7:55 AM 28.4 °F 19.7 °F 5.0 °F 37% 30.27 in 10.0 mi West 9.2 mph - N/A   Clear
8:15 AM 28.4 °F 20.4 °F 5.0 °F 37% 30.28 in 10.0 mi West 8.1 mph - N/A   Clear
8:35 AM 32.0 °F 24.2 °F 5.0 °F 32% 30.29 in 10.0 mi West 9.2 mph - N/A   Clear
8:55 AM 32.0 °F 27.5 °F 6.8 °F 35% 30.30 in 10.0 mi NW 4.6 mph - N/A   Clear
9:15 AM 35.6 °F 30.7 °F 8.6 °F 33% 30.30 in 10.0 mi NW 5.8 mph - N/A   Clear
9:35 AM 37.4 °F 33.8 °F 8.6 °F 30% 30.31 in 10.0 mi North 4.6 mph - N/A   Clear
9:55 AM 39.2 °F 35.0 °F 8.6 °F 28% 30.30 in 10.0 mi NNW 5.8 mph - N/A   Clear
10:15 AM 39.2 °F 33.6 °F 10.4 °F 31% 30.31 in 10.0 mi NNW 8.1 mph - N/A   Clear
10:35 AM 39.2 °F 34.2 °F 10.4 °F 31% 30.30 in 10.0 mi NNW 6.9 mph - N/A   Clear
10:55 AM 41.0 °F 37.1 °F 10.4 °F 29% 30.30 in 10.0 mi NNW 5.8 mph - N/A   Clear
11:15 AM 41.0 °F 38.0 °F 10.4 °F 29% 30.30 in 10.0 mi NW 4.6 mph - N/A   Clear
11:35 AM 44.6 °F 40.7 °F 10.4 °F 25% 30.29 in 10.0 mi North 6.9 mph - N/A   Clear
11:55 AM 42.8 °F 37.5 °F 10.4 °F 27% 30.28 in 10.0 mi NW 9.2 mph - N/A   Clear
12:15 PM 44.6 °F 39.7 °F 10.4 °F 25% 30.27 in 10.0 mi NNW 9.2 mph - N/A   Clear
12:35 PM 44.6 °F 42.2 °F 14.0 °F 29% 30.27 in 10.0 mi NW 4.6 mph - N/A   Clear
12:55 PM 44.6 °F - 14.0 °F 29% 30.26 in 10.0 mi Calm Calm - N/A   Clear
1:15 PM 44.6 °F 40.7 °F 14.0 °F 29% 30.25 in 10.0 mi NNW 6.9 mph - N/A   Clear
1:55 PM 46.4 °F 41.9 °F 14.0 °F 27% 30.25 in 10.0 mi North 9.2 mph - N/A   Clear
2:15 PM 46.4 °F 41.9 °F 12.2 °F 25% 30.25 in 10.0 mi WNW 9.2 mph - N/A   Clear
2:35 PM 46.4 °F 43.5 °F 12.2 °F 25% 30.25 in 10.0 mi NNW 5.8 mph - N/A   Clear
2:55 PM 46.4 °F 44.3 °F 12.2 °F 25% 30.25 in 10.0 mi NNW 4.6 mph - N/A   Clear
3:15 PM 46.4 °F - 12.2 °F 25% 30.25 in 10.0 mi Calm Calm - N/A   Clear
3:35 PM 46.4 °F 45.2 °F 12.2 °F 25% 30.26 in 10.0 mi West 3.5 mph - N/A   Clear
3:55 PM 46.4 °F 41.9 °F 14.0 °F 27% 30.27 in 10.0 mi SE 9.2 mph - N/A   Clear
4:15 PM 44.6 °F 40.7 °F 14.0 °F 29% 30.28 in 10.0 mi SE 6.9 mph - N/A   Clear
4:35 PM 42.8 °F 40.1 °F 14.0 °F 31% 30.29 in 10.0 mi ESE 4.6 mph - N/A   Clear
4:55 PM 39.2 °F 34.2 °F 10.4 °F 31% 30.30 in 10.0 mi West 6.9 mph - N/A   Clear
5:15 PM 37.4 °F 32.8 °F 8.6 °F 30% 30.31 in 10.0 mi West 5.8 mph - N/A   Clear
5:35 PM 35.6 °F 32.8 °F 8.6 °F 33% 30.32 in 10.0 mi WNW 3.5 mph - N/A   Clear
5:55 PM 33.8 °F 27.7 °F 8.6 °F 35% 30.32 in 10.0 mi West 6.9 mph - N/A   Clear
6:15 PM 32.0 °F 26.4 °F 6.8 °F 35% 30.33 in 10.0 mi West 5.8 mph - N/A   Clear
6:35 PM 32.0 °F 27.5 °F 6.8 °F 35% 30.34 in 10.0 mi West 4.6 mph - N/A   Clear
6:55 PM 32.0 °F - 6.8 °F 35% 30.35 in 10.0 mi Calm Calm - N/A   Clear
7:15 PM 32.0 °F - 6.8 °F 35% 30.35 in 10.0 mi Calm Calm - N/A   Clear
7:35 PM 32.0 °F 28.7 °F 8.6 °F 38% 30.36 in 10.0 mi SW 3.5 mph - N/A   Clear
7:55 PM 32.0 °F - 8.6 °F 38% 30.37 in 10.0 mi Calm Calm - N/A   Clear
8:15 PM 32.0 °F - 8.6 °F 38% 30.37 in 10.0 mi Calm Calm - N/A   Clear
8:35 PM 32.0 °F - 8.6 °F 38% 30.37 in 10.0 mi Calm Calm - N/A   Clear
8:55 PM 32.0 °F 27.5 °F 8.6 °F 38% 30.38 in 10.0 mi SSW 4.6 mph - N/A   Clear
9:15 PM 32.0 °F 27.5 °F 10.4 °F 41% 30.38 in 10.0 mi WSW 4.6 mph - N/A   Clear
9:35 PM 32.0 °F 27.5 °F 12.2 °F 44% 30.38 in 10.0 mi West 4.6 mph - N/A   Clear
9:55 PM 30.2 °F 26.7 °F 12.2 °F 47% 30.38 in 10.0 mi NE 3.5 mph - N/A   Clear
10:15 PM 30.2 °F - 10.4 °F 44% 30.38 in 10.0 mi Calm Calm - N/A   Clear
10:35 PM 30.2 °F 26.7 °F 14.0 °F 51% 30.38 in 10.0 mi SSW 3.5 mph - N/A   Clear
10:55 PM 32.0 °F 28.7 °F 14.0 °F 48% 30.39 in 10.0 mi WNW 3.5 mph - N/A   Clear
11:35 PM 28.4 °F - 10.4 °F 47% 30.41 in 10.0 mi Calm Calm - N/A   Clear
11:55 PM 28.4 °F 23.3 °F 14.0 °F 55% 30.41 in 10.0 mi WNW 4.6 mph - N/A   Clear